Terminal Aerodrome Forecast
Issued by NWS San Angelo, TX

Current Version | Previous Version | Text Only | Print | Product List | Glossary On
Versions: 1 2 3 4 5 6 7 8 9 10 11 12 13 14 15 16 17 18 19 20 21 22 23 24 25 26 27
000
FTUS44 KSJT 211600 AAB
TAFABI
TAF AMD
KABI 211600Z 2116/2212 01016G23KT 3SM -FZRAPL BR OVC007
     FM212100 36012G18KT P6SM VCSH OVC009
     FM220000 36007KT P6SM OVC008=

USA.gov is the U.S. government's official web portal to all federal, state and local government web resources and services.